sensor_id;sensor_type;location;lat;lon;timestamp;P1;durP1;ratioP1;P2;durP2;ratioP2
77802;SDS011;66993;48.256;16.422;2023-02-13T00:01:28;37.0;;;18.4;;
77802;SDS011;66993;48.256;16.422;2023-02-13T00:06:28;36.1;;;18.5;;
77802;SDS011;66993;48.256;16.422;2023-02-13T00:11:30;35.9;;;18.2;;
77802;SDS011;66993;48.256;16.422;2023-02-13T00:16:31;35.2;;;17.5;;
77802;SDS011;66993;48.256;16.422;2023-02-13T00:21:32;32.2;;;16.1;;
77802;SDS011;66993;48.256;16.422;2023-02-13T00:26:33;37.0;;;18.5;;
77802;SDS011;66993;48.256;16.422;2023-02-13T00:31:35;38.1;;;18.2;;
77802;SDS011;66993;48.256;16.422;2023-02-13T00:36:36;34.9;;;18.2;;
77802;SDS011;66993;48.256;16.422;2023-02-13T00:41:37;35.9;;;17.3;;
77802;SDS011;66993;48.256;16.422;2023-02-13T00:46:39;36.4;;;16.3;;
77802;SDS011;66993;48.256;16.422;2023-02-13T00:51:40;39.7;;;18.3;;
77802;SDS011;66993;48.256;16.422;2023-02-13T00:56:41;36.8;;;17.4;;
77802;SDS011;66993;48.256;16.422;2023-02-13T01:01:43;39.4;;;19.5;;
77802;SDS011;66993;48.256;16.422;2023-02-13T01:06:44;38.5;;;18.3;;
77802;SDS011;66993;48.256;16.422;2023-02-13T01:11:45;42.2;;;18.4;;
77802;SDS011;66993;48.256;16.422;2023-02-13T01:16:46;41.3;;;19.2;;
77802;SDS011;66993;48.256;16.422;2023-02-13T01:21:48;38.5;;;18.9;;
77802;SDS011;66993;48.256;16.422;2023-02-13T01:26:49;41.6;;;19.9;;
77802;SDS011;66993;48.256;16.422;2023-02-13T01:31:50;39.2;;;18.1;;
77802;SDS011;66993;48.256;16.422;2023-02-13T01:36:52;40.8;;;17.3;;
77802;SDS011;66993;48.256;16.422;2023-02-13T01:41:53;36.9;;;18.1;;
77802;SDS011;66993;48.256;16.422;2023-02-13T01:46:54;39.2;;;18.4;;
77802;SDS011;66993;48.256;16.422;2023-02-13T01:51:56;34.3;;;16.6;;
77802;SDS011;66993;48.256;16.422;2023-02-13T01:57:01;36.7;;;16.7;;
77802;SDS011;66993;48.256;16.422;2023-02-13T02:01:58;35.8;;;15.8;;
77802;SDS011;66993;48.256;16.422;2023-02-13T02:07:00;33.9;;;17.0;;
77802;SDS011;66993;48.256;16.422;2023-02-13T02:12:02;33.7;;;16.1;;
77802;SDS011;66993;48.256;16.422;2023-02-13T02:17:02;33.1;;;16.7;;
77802;SDS011;66993;48.256;16.422;2023-02-13T02:22:13;33.3;;;16.4;;
77802;SDS011;66993;48.256;16.422;2023-02-13T02:27:14;29.2;;;14.1;;
77802;SDS011;66993;48.256;16.422;2023-02-13T02:32:09;30.9;;;13.9;;
77802;SDS011;66993;48.256;16.422;2023-02-13T02:37:12;30.1;;;13.5;;
77802;SDS011;66993;48.256;16.422;2023-02-13T02:42:11;27.7;;;15.1;;
77802;SDS011;66993;48.256;16.422;2023-02-13T02:47:14;27.4;;;12.6;;
77802;SDS011;66993;48.256;16.422;2023-02-13T02:52:13;27.1;;;12.2;;
77802;SDS011;66993;48.256;16.422;2023-02-13T02:57:14;28.7;;;13.3;;
77802;SDS011;66993;48.256;16.422;2023-02-13T03:02:14;28.9;;;14.1;;
77802;SDS011;66993;48.256;16.422;2023-02-13T03:07:16;26.0;;;12.8;;
77802;SDS011;66993;48.256;16.422;2023-02-13T03:12:18;28.4;;;13.2;;
77802;SDS011;66993;48.256;16.422;2023-02-13T03:17:18;30.3;;;13.8;;
77802;SDS011;66993;48.256;16.422;2023-02-13T03:22:22;25.2;;;12.3;;
77802;SDS011;66993;48.256;16.422;2023-02-13T03:27:23;25.7;;;12.4;;
77802;SDS011;66993;48.256;16.422;2023-02-13T03:32:24;25.9;;;13.2;;
77802;SDS011;66993;48.256;16.422;2023-02-13T03:37:25;23.0;;;11.6;;
77802;SDS011;66993;48.256;16.422;2023-02-13T03:42:26;22.5;;;11.4;;
77802;SDS011;66993;48.256;16.422;2023-02-13T03:47:25;23.6;;;12.2;;
77802;SDS011;66993;48.256;16.422;2023-02-13T03:52:29;23.0;;;12.7;;
77802;SDS011;66993;48.256;16.422;2023-02-13T03:57:28;28.2;;;13.5;;
77802;SDS011;66993;48.256;16.422;2023-02-13T04:02:32;19.9;;;11.2;;
77802;SDS011;66993;48.256;16.422;2023-02-13T04:07:31;23.7;;;12.1;;
77802;SDS011;66993;48.256;16.422;2023-02-13T04:12:35;23.1;;;12.2;;
77802;SDS011;66993;48.256;16.422;2023-02-13T04:17:34;26.7;;;13.6;;
77802;SDS011;66993;48.256;16.422;2023-02-13T04:27:36;27.4;;;13.6;;
77802;SDS011;66993;48.256;16.422;2023-02-13T04:32:37;28.3;;;12.3;;
77802;SDS011;66993;48.256;16.422;2023-02-13T04:37:39;24.1;;;12.7;;
77802;SDS011;66993;48.256;16.422;2023-02-13T04:42:40;25.1;;;13.1;;
77802;SDS011;66993;48.256;16.422;2023-02-13T04:47:41;27.6;;;14.0;;
77802;SDS011;66993;48.256;16.422;2023-02-13T04:52:42;29.1;;;13.9;;
77802;SDS011;66993;48.256;16.422;2023-02-13T04:57:44;24.5;;;11.6;;
77802;SDS011;66993;48.256;16.422;2023-02-13T05:02:45;28.2;;;13.2;;
77802;SDS011;66993;48.256;16.422;2023-02-13T05:07:46;31.1;;;14.2;;
77802;SDS011;66993;48.256;16.422;2023-02-13T05:12:48;32.3;;;14.9;;
77802;SDS011;66993;48.256;16.422;2023-02-13T05:17:49;28.0;;;13.8;;
77802;SDS011;66993;48.256;16.422;2023-02-13T05:22:51;29.0;;;13.4;;
77802;SDS011;66993;48.256;16.422;2023-02-13T05:27:52;25.9;;;12.9;;
77802;SDS011;66993;48.256;16.422;2023-02-13T05:32:53;26.8;;;14.1;;
77802;SDS011;66993;48.256;16.422;2023-02-13T05:37:54;30.2;;;14.7;;
77802;SDS011;66993;48.256;16.422;2023-02-13T05:42:56;25.7;;;13.2;;
77802;SDS011;66993;48.256;16.422;2023-02-13T05:47:57;27.8;;;12.2;;
77802;SDS011;66993;48.256;16.422;2023-02-13T05:52:58;27.8;;;13.1;;
77802;SDS011;66993;48.256;16.422;2023-02-13T05:57:59;26.9;;;13.2;;
77802;SDS011;66993;48.256;16.422;2023-02-13T06:03:01;26.7;;;13.0;;
77802;SDS011;66993;48.256;16.422;2023-02-13T06:08:02;23.7;;;12.1;;
77802;SDS011;66993;48.256;16.422;2023-02-13T06:13:04;22.8;;;11.6;;
77802;SDS011;66993;48.256;16.422;2023-02-13T06:18:05;22.4;;;11.4;;
77802;SDS011;66993;48.256;16.422;2023-02-13T06:23:06;22.4;;;11.4;;
77802;SDS011;66993;48.256;16.422;2023-02-13T06:28:08;23.9;;;11.7;;
77802;SDS011;66993;48.256;16.422;2023-02-13T06:33:09;21.1;;;10.8;;
77802;SDS011;66993;48.256;16.422;2023-02-13T06:38:10;21.0;;;9.9;;
77802;SDS011;66993;48.256;16.422;2023-02-13T06:43:12;24.5;;;10.6;;
77802;SDS011;66993;48.256;16.422;2023-02-13T06:48:13;21.1;;;10.9;;
77802;SDS011;66993;48.256;16.422;2023-02-13T06:53:14;23.7;;;11.4;;
77802;SDS011;66993;48.256;16.422;2023-02-13T06:58:15;23.3;;;11.3;;
77802;SDS011;66993;48.256;16.422;2023-02-13T07:03:17;19.5;;;10.6;;
77802;SDS011;66993;48.256;16.422;2023-02-13T07:08:18;21.6;;;11.2;;
77802;SDS011;66993;48.256;16.422;2023-02-13T07:13:19;19.4;;;10.6;;
77802;SDS011;66993;48.256;16.422;2023-02-13T07:18:21;24.2;;;12.3;;
77802;SDS011;66993;48.256;16.422;2023-02-13T07:23:22;21.5;;;10.5;;
77802;SDS011;66993;48.256;16.422;2023-02-13T07:28:23;20.1;;;10.0;;
77802;SDS011;66993;48.256;16.422;2023-02-13T07:33:25;21.4;;;10.7;;
77802;SDS011;66993;48.256;16.422;2023-02-13T07:38:26;19.9;;;10.4;;
77802;SDS011;66993;48.256;16.422;2023-02-13T07:43:27;21.2;;;11.3;;
77802;SDS011;66993;48.256;16.422;2023-02-13T07:48:28;18.7;;;10.1;;
77802;SDS011;66993;48.256;16.422;2023-02-13T07:53:30;21.4;;;9.7;;
77802;SDS011;66993;48.256;16.422;2023-02-13T07:58:31;20.0;;;10.5;;
77802;SDS011;66993;48.256;16.422;2023-02-13T08:03:32;21.2;;;10.3;;
77802;SDS011;66993;48.256;16.422;2023-02-13T08:08:34;17.3;;;10.4;;
77802;SDS011;66993;48.256;16.422;2023-02-13T08:13:35;20.0;;;10.1;;
77802;SDS011;66993;48.256;16.422;2023-02-13T08:18:36;18.2;;;8.7;;
77802;SDS011;66993;48.256;16.422;2023-02-13T08:23:38;19.7;;;10.5;;
77802;SDS011;66993;48.256;16.422;2023-02-13T08:28:39;19.8;;;10.2;;
77802;SDS011;66993;48.256;16.422;2023-02-13T08:33:40;19.2;;;10.8;;
77802;SDS011;66993;48.256;16.422;2023-02-13T08:38:42;19.2;;;9.9;;
77802;SDS011;66993;48.256;16.422;2023-02-13T08:43:43;20.4;;;9.4;;
77802;SDS011;66993;48.256;16.422;2023-02-13T08:48:44;18.4;;;10.2;;
77802;SDS011;66993;48.256;16.422;2023-02-13T08:53:45;18.4;;;10.3;;
77802;SDS011;66993;48.256;16.422;2023-02-13T08:58:47;19.6;;;10.5;;
77802;SDS011;66993;48.256;16.422;2023-02-13T09:03:48;21.0;;;10.7;;
77802;SDS011;66993;48.256;16.422;2023-02-13T09:08:49;20.9;;;10.2;;
77802;SDS011;66993;48.256;16.422;2023-02-13T09:13:51;18.6;;;10.3;;
77802;SDS011;66993;48.256;16.422;2023-02-13T09:18:52;21.1;;;11.3;;
77802;SDS011;66993;48.256;16.422;2023-02-13T09:23:53;24.2;;;11.7;;
77802;SDS011;66993;48.256;16.422;2023-02-13T09:28:54;21.9;;;11.5;;
77802;SDS011;66993;48.256;16.422;2023-02-13T09:33:56;24.9;;;10.9;;
77802;SDS011;66993;48.256;16.422;2023-02-13T09:38:57;20.1;;;11.1;;
77802;SDS011;66993;48.256;16.422;2023-02-13T09:43:58;23.4;;;12.2;;
77802;SDS011;66993;48.256;16.422;2023-02-13T09:49:00;22.0;;;10.7;;
77802;SDS011;66993;48.256;16.422;2023-02-13T09:54:01;21.5;;;10.8;;
77802;SDS011;66993;48.256;16.422;2023-02-13T09:59:04;20.1;;;10.1;;
77802;SDS011;66993;48.256;16.422;2023-02-13T10:04:10;19.5;;;10.4;;
77802;SDS011;66993;48.256;16.422;2023-02-13T10:09:07;19.7;;;10.1;;
77802;SDS011;66993;48.256;16.422;2023-02-13T10:14:08;18.4;;;10.3;;
77802;SDS011;66993;48.256;16.422;2023-02-13T10:19:11;15.4;;;9.0;;
77802;SDS011;66993;48.256;16.422;2023-02-13T10:24:10;14.1;;;7.9;;
77802;SDS011;66993;48.256;16.422;2023-02-13T10:29:12;18.1;;;8.5;;
77802;SDS011;66993;48.256;16.422;2023-02-13T10:34:13;12.1;;;7.2;;
77802;SDS011;66993;48.256;16.422;2023-02-13T10:39:18;13.0;;;7.3;;
77802;SDS011;66993;48.256;16.422;2023-02-13T10:44:19;11.1;;;6.6;;
77802;SDS011;66993;48.256;16.422;2023-02-13T10:54:21;14.9;;;8.0;;
77802;SDS011;66993;48.256;16.422;2023-02-13T10:59:23;14.1;;;7.8;;
77802;SDS011;66993;48.256;16.422;2023-02-13T11:04:19;17.3;;;8.8;;
77802;SDS011;66993;48.256;16.422;2023-02-13T11:09:21;11.8;;;6.9;;
77802;SDS011;66993;48.256;16.422;2023-02-13T11:14:23;12.7;;;6.1;;
77802;SDS011;66993;48.256;16.422;2023-02-13T11:19:25;8.4;;;5.5;;
77802;SDS011;66993;48.256;16.422;2023-02-13T11:24:25;11.0;;;6.3;;
77802;SDS011;66993;48.256;16.422;2023-02-13T11:29:26;11.4;;;6.6;;
77802;SDS011;66993;48.256;16.422;2023-02-13T11:34:28;14.3;;;5.8;;
77802;SDS011;66993;48.256;16.422;2023-02-13T11:39:28;10.5;;;5.5;;
77802;SDS011;66993;48.256;16.422;2023-02-13T11:44:30;9.7;;;6.4;;
77802;SDS011;66993;48.256;16.422;2023-02-13T11:49:31;8.6;;;4.9;;
77802;SDS011;66993;48.256;16.422;2023-02-13T11:54:33;8.7;;;5.2;;
77802;SDS011;66993;48.256;16.422;2023-02-13T11:59:38;10.1;;;5.6;;
77802;SDS011;66993;48.256;16.422;2023-02-13T12:04:35;9.8;;;5.3;;
77802;SDS011;66993;48.256;16.422;2023-02-13T12:09:36;10.2;;;5.8;;
77802;SDS011;66993;48.256;16.422;2023-02-13T12:14:38;10.9;;;5.8;;
77802;SDS011;66993;48.256;16.422;2023-02-13T12:19:40;10.4;;;5.7;;
77802;SDS011;66993;48.256;16.422;2023-02-13T12:24:45;10.1;;;5.8;;
77802;SDS011;66993;48.256;16.422;2023-02-13T12:29:47;10.1;;;5.4;;
77802;SDS011;66993;48.256;16.422;2023-02-13T12:34:48;13.3;;;6.0;;
77802;SDS011;66993;48.256;16.422;2023-02-13T12:39:46;12.1;;;7.0;;
77802;SDS011;66993;48.256;16.422;2023-02-13T12:44:51;12.5;;;7.7;;
77802;SDS011;66993;48.256;16.422;2023-02-13T12:49:57;12.2;;;6.7;;
77802;SDS011;66993;48.256;16.422;2023-02-13T12:54:49;13.2;;;6.6;;
77802;SDS011;66993;48.256;16.422;2023-02-13T12:59:54;12.4;;;7.1;;
77802;SDS011;66993;48.256;16.422;2023-02-13T13:04:53;13.4;;;6.4;;
77802;SDS011;66993;48.256;16.422;2023-02-13T13:09:55;12.5;;;7.3;;
77802;SDS011;66993;48.256;16.422;2023-02-13T13:14:54;10.6;;;6.5;;
77802;SDS011;66993;48.256;16.422;2023-02-13T13:19:56;11.4;;;6.0;;
77802;SDS011;66993;48.256;16.422;2023-02-13T13:24:58;10.5;;;6.5;;
77802;SDS011;66993;48.256;16.422;2023-02-13T13:29:57;9.9;;;5.8;;
77802;SDS011;66993;48.256;16.422;2023-02-13T13:34:58;11.3;;;5.9;;
77802;SDS011;66993;48.256;16.422;2023-02-13T13:40:02;9.8;;;5.7;;
77802;SDS011;66993;48.256;16.422;2023-02-13T13:45:03;9.4;;;5.0;;
77802;SDS011;66993;48.256;16.422;2023-02-13T13:50:02;8.6;;;5.3;;
77802;SDS011;66993;48.256;16.422;2023-02-13T13:55:03;9.7;;;5.3;;
77802;SDS011;66993;48.256;16.422;2023-02-13T14:10:11;8.8;;;4.9;;
77802;SDS011;66993;48.256;16.422;2023-02-13T14:35:15;8.2;;;4.6;;
77802;SDS011;66993;48.256;16.422;2023-02-13T14:45:16;7.1;;;4.3;;
77802;SDS011;66993;48.256;16.422;2023-02-13T14:50:18;7.0;;;4.3;;
77802;SDS011;66993;48.256;16.422;2023-02-13T14:55:21;6.6;;;3.9;;
77802;SDS011;66993;48.256;16.422;2023-02-13T15:00:22;8.3;;;4.5;;
77802;SDS011;66993;48.256;16.422;2023-02-13T15:05:21;6.4;;;4.0;;
77802;SDS011;66993;48.256;16.422;2023-02-13T15:10:27;9.4;;;4.7;;
77802;SDS011;66993;48.256;16.422;2023-02-13T15:15:25;12.2;;;6.2;;
77802;SDS011;66993;48.256;16.422;2023-02-13T15:20:25;8.3;;;4.7;;
77802;SDS011;66993;48.256;16.422;2023-02-13T15:25:28;8.5;;;4.3;;
77802;SDS011;66993;48.256;16.422;2023-02-13T15:30:28;8.9;;;5.1;;
77802;SDS011;66993;48.256;16.422;2023-02-13T15:35:29;9.9;;;5.0;;
77802;SDS011;66993;48.256;16.422;2023-02-13T15:40:31;10.2;;;6.1;;
77802;SDS011;66993;48.256;16.422;2023-02-13T15:45:31;11.0;;;5.6;;
77802;SDS011;66993;48.256;16.422;2023-02-13T15:50:33;8.5;;;4.6;;
77802;SDS011;66993;48.256;16.422;2023-02-13T15:55:33;11.2;;;5.3;;
77802;SDS011;66993;48.256;16.422;2023-02-13T16:00:36;9.9;;;5.7;;
77802;SDS011;66993;48.256;16.422;2023-02-13T16:05:37;12.5;;;6.7;;
77802;SDS011;66993;48.256;16.422;2023-02-13T16:10:38;11.1;;;6.0;;
77802;SDS011;66993;48.256;16.422;2023-02-13T16:15:40;10.7;;;6.1;;
77802;SDS011;66993;48.256;16.422;2023-02-13T16:20:40;10.9;;;5.5;;
77802;SDS011;66993;48.256;16.422;2023-02-13T16:25:41;11.8;;;6.2;;
77802;SDS011;66993;48.256;16.422;2023-02-13T16:30:43;11.8;;;6.7;;
77802;SDS011;66993;48.256;16.422;2023-02-13T16:35:44;11.2;;;6.4;;
77802;SDS011;66993;48.256;16.422;2023-02-13T16:40:45;10.1;;;5.4;;
77802;SDS011;66993;48.256;16.422;2023-02-13T16:45:47;11.0;;;6.3;;
77802;SDS011;66993;48.256;16.422;2023-02-13T17:00:50;11.8;;;6.4;;
77802;SDS011;66993;48.256;16.422;2023-02-13T17:05:51;12.9;;;6.1;;
77802;SDS011;66993;48.256;16.422;2023-02-13T17:15:54;11.2;;;6.4;;
77802;SDS011;66993;48.256;16.422;2023-02-13T17:20:55;12.1;;;7.1;;
77802;SDS011;66993;48.256;16.422;2023-02-13T17:25:56;11.6;;;6.3;;
77802;SDS011;66993;48.256;16.422;2023-02-13T17:30:58;14.3;;;6.3;;
77802;SDS011;66993;48.256;16.422;2023-02-13T17:35:59;12.5;;;6.3;;
77802;SDS011;66993;48.256;16.422;2023-02-13T17:41:00;13.9;;;7.3;;
77802;SDS011;66993;48.256;16.422;2023-02-13T17:46:02;13.6;;;7.2;;
77802;SDS011;66993;48.256;16.422;2023-02-13T17:51:03;13.2;;;6.0;;
77802;SDS011;66993;48.256;16.422;2023-02-13T17:56:04;10.9;;;5.9;;
77802;SDS011;66993;48.256;16.422;2023-02-13T18:01:07;11.5;;;6.5;;
77802;SDS011;66993;48.256;16.422;2023-02-13T18:06:10;11.9;;;6.5;;
77802;SDS011;66993;48.256;16.422;2023-02-13T18:11:09;11.7;;;6.8;;
77802;SDS011;66993;48.256;16.422;2023-02-13T18:16:10;12.6;;;6.5;;
77802;SDS011;66993;48.256;16.422;2023-02-13T18:21:11;12.6;;;6.3;;
77802;SDS011;66993;48.256;16.422;2023-02-13T18:26:12;11.9;;;6.7;;
77802;SDS011;66993;48.256;16.422;2023-02-13T18:31:14;12.5;;;7.0;;
77802;SDS011;66993;48.256;16.422;2023-02-13T18:36:15;13.4;;;7.7;;
77802;SDS011;66993;48.256;16.422;2023-02-13T18:41:16;12.6;;;6.5;;
77802;SDS011;66993;48.256;16.422;2023-02-13T18:46:18;12.4;;;6.4;;
77802;SDS011;66993;48.256;16.422;2023-02-13T18:51:19;9.9;;;6.4;;
77802;SDS011;66993;48.256;16.422;2023-02-13T18:56:20;12.2;;;6.9;;
77802;SDS011;66993;48.256;16.422;2023-02-13T19:01:21;13.6;;;7.2;;
77802;SDS011;66993;48.256;16.422;2023-02-13T19:06:24;13.3;;;7.5;;
77802;SDS011;66993;48.256;16.422;2023-02-13T19:11:24;11.7;;;6.4;;
77802;SDS011;66993;48.256;16.422;2023-02-13T19:16:26;13.4;;;7.5;;
77802;SDS011;66993;48.256;16.422;2023-02-13T19:21:28;13.7;;;7.2;;
77802;SDS011;66993;48.256;16.422;2023-02-13T19:26:28;13.7;;;8.1;;
77802;SDS011;66993;48.256;16.422;2023-02-13T19:31:30;13.8;;;7.8;;
77802;SDS011;66993;48.256;16.422;2023-02-13T19:36:30;14.7;;;7.2;;
77802;SDS011;66993;48.256;16.422;2023-02-13T19:41:32;13.0;;;7.4;;
77802;SDS011;66993;48.256;16.422;2023-02-13T19:46:33;14.3;;;8.3;;
77802;SDS011;66993;48.256;16.422;2023-02-13T19:51:34;15.5;;;8.6;;
77802;SDS011;66993;48.256;16.422;2023-02-13T19:56:36;13.6;;;7.5;;
77802;SDS011;66993;48.256;16.422;2023-02-13T20:01:37;12.5;;;6.5;;
77802;SDS011;66993;48.256;16.422;2023-02-13T20:06:38;13.4;;;7.6;;
77802;SDS011;66993;48.256;16.422;2023-02-13T20:11:40;14.8;;;8.1;;
77802;SDS011;66993;48.256;16.422;2023-02-13T20:16:41;14.0;;;8.1;;
77802;SDS011;66993;48.256;16.422;2023-02-13T20:21:42;13.3;;;7.5;;
77802;SDS011;66993;48.256;16.422;2023-02-13T20:26:44;12.0;;;6.6;;
77802;SDS011;66993;48.256;16.422;2023-02-13T20:31:45;12.4;;;7.4;;
77802;SDS011;66993;48.256;16.422;2023-02-13T20:36:46;13.9;;;7.9;;
77802;SDS011;66993;48.256;16.422;2023-02-13T20:41:48;14.9;;;8.3;;
77802;SDS011;66993;48.256;16.422;2023-02-13T20:46:49;12.5;;;7.3;;
77802;SDS011;66993;48.256;16.422;2023-02-13T20:51:50;12.7;;;6.9;;
77802;SDS011;66993;48.256;16.422;2023-02-13T20:56:51;12.2;;;7.1;;
77802;SDS011;66993;48.256;16.422;2023-02-13T21:01:53;13.7;;;7.2;;
77802;SDS011;66993;48.256;16.422;2023-02-13T21:06:54;13.4;;;8.4;;
77802;SDS011;66993;48.256;16.422;2023-02-13T21:11:55;14.9;;;8.3;;
77802;SDS011;66993;48.256;16.422;2023-02-13T21:16:57;13.3;;;7.1;;
77802;SDS011;66993;48.256;16.422;2023-02-13T21:21:58;14.1;;;7.8;;
77802;SDS011;66993;48.256;16.422;2023-02-13T21:26:59;13.6;;;7.6;;
77802;SDS011;66993;48.256;16.422;2023-02-13T21:32:01;13.4;;;7.9;;
77802;SDS011;66993;48.256;16.422;2023-02-13T21:37:02;13.3;;;7.8;;
77802;SDS011;66993;48.256;16.422;2023-02-13T21:42:03;14.8;;;7.5;;
77802;SDS011;66993;48.256;16.422;2023-02-13T21:47:04;14.7;;;7.4;;
77802;SDS011;66993;48.256;16.422;2023-02-13T21:52:06;14.1;;;8.4;;
77802;SDS011;66993;48.256;16.422;2023-02-13T21:57:07;15.5;;;8.6;;
77802;SDS011;66993;48.256;16.422;2023-02-13T22:02:08;13.9;;;7.9;;
77802;SDS011;66993;48.256;16.422;2023-02-13T22:07:09;17.5;;;7.5;;
77802;SDS011;66993;48.256;16.422;2023-02-13T22:12:11;16.0;;;8.1;;
77802;SDS011;66993;48.256;16.422;2023-02-13T22:17:12;15.4;;;8.3;;
77802;SDS011;66993;48.256;16.422;2023-02-13T22:22:13;12.9;;;7.9;;
77802;SDS011;66993;48.256;16.422;2023-02-13T22:27:15;13.7;;;7.1;;
77802;SDS011;66993;48.256;16.422;2023-02-13T22:32:16;12.4;;;6.5;;
77802;SDS011;66993;48.256;16.422;2023-02-13T22:37:17;14.2;;;7.4;;
77802;SDS011;66993;48.256;16.422;2023-02-13T22:42:19;13.6;;;7.0;;
77802;SDS011;66993;48.256;16.422;2023-02-13T22:47:20;13.5;;;7.1;;
77802;SDS011;66993;48.256;16.422;2023-02-13T22:52:21;13.1;;;6.4;;
77802;SDS011;66993;48.256;16.422;2023-02-13T22:57:23;14.0;;;6.4;;
77802;SDS011;66993;48.256;16.422;2023-02-13T23:02:24;16.3;;;6.8;;
77802;SDS011;66993;48.256;16.422;2023-02-13T23:07:25;14.1;;;6.7;;
77802;SDS011;66993;48.256;16.422;2023-02-13T23:12:27;12.5;;;7.2;;
77802;SDS011;66993;48.256;16.422;2023-02-13T23:17:28;13.0;;;6.4;;
77802;SDS011;66993;48.256;16.422;2023-02-13T23:22:29;12.5;;;5.9;;
77802;SDS011;66993;48.256;16.422;2023-02-13T23:27:31;11.0;;;5.8;;
77802;SDS011;66993;48.256;16.422;2023-02-13T23:32:32;12.2;;;6.2;;
77802;SDS011;66993;48.256;16.422;2023-02-13T23:37:33;10.3;;;6.1;;
77802;SDS011;66993;48.256;16.422;2023-02-13T23:42:34;11.7;;;5.5;;
77802;SDS011;66993;48.256;16.422;2023-02-13T23:47:36;10.1;;;4.9;;
77802;SDS011;66993;48.256;16.422;2023-02-13T23:52:37;11.2;;;6.1;;
77802;SDS011;66993;48.256;16.422;2023-02-13T23:57:38;11.4;;;5.8;;
